TimeMDT,TemperatureF,Dew PointF,Humidity,Sea Level PressureIn,VisibilityMPH,Wind Direction,Wind SpeedMPH,Gust SpeedMPH,PrecipitationIn,Events,Conditions,WindDirDegrees,DateUTC
12:53 AM,41.0,6.1,24,29.90,10.0,Calm,Calm,-,N/A,,Clear,0,2012-10-07 06:53:00
1:53 AM,41.0,9.0,27,29.90,10.0,Calm,Calm,-,N/A,,Clear,0,2012-10-07 07:53:00
2:53 AM,36.0,6.1,29,29.92,10.0,NNE,3.5,-,N/A,,Clear,30,2012-10-07 08:53:00
3:53 AM,37.0,7.0,29,29.91,10.0,NNE,4.6,-,N/A,,Clear,30,2012-10-07 09:53:00
4:53 AM,33.1,9.0,37,29.93,10.0,North,4.6,-,N/A,,Clear,360,2012-10-07 10:53:00
5:53 AM,30.0,8.1,40,29.97,10.0,NNE,3.5,-,N/A,,Clear,30,2012-10-07 11:53:00
6:53 AM,28.0,6.1,39,30.01,10.0,NE,3.5,-,N/A,,Clear,40,2012-10-07 12:53:00
7:53 AM,30.9,6.1,35,30.04,10.0,Calm,Calm,-,N/A,,Clear,0,2012-10-07 13:53:00
8:53 AM,39.0,12.9,34,30.04,10.0,East,5.8,-,N/A,,Clear,80,2012-10-07 14:53:00
9:53 AM,48.0,12.0,24,30.03,10.0,WSW,3.5,-,N/A,,Clear,240,2012-10-07 15:53:00
11:53 AM,59.0,-0.9,9,29.98,10.0,WSW,9.2,-,N/A,,Clear,250,2012-10-07 17:53:00
12:53 PM,62.1,-6.0,6,29.97,10.0,SW,10.4,20.7,N/A,,Clear,230,2012-10-07 18:53:00
1:53 PM,63.0,-4.0,7,29.94,10.0,SW,10.4,21.9,N/A,,Clear,230,2012-10-07 19:53:00
2:53 PM,64.0,-4.0,6,29.95,10.0,WSW,13.8,19.6,N/A,,Clear,240,2012-10-07 20:53:00
3:53 PM,64.0,-2.9,7,29.94,10.0,WSW,12.7,21.9,N/A,,Clear,240,2012-10-07 21:53:00
4:53 PM,64.0,-2.0,7,29.95,10.0,WSW,18.4,-,N/A,,Clear,250,2012-10-07 22:53:00
5:53 PM,61.0,-2.9,8,29.98,10.0,WSW,15.0,24.2,N/A,,Clear,240,2012-10-07 23:53:00
6:53 PM,55.9,-4.0,9,30.04,10.0,SW,12.7,-,N/A,,Clear,220,2012-10-08 00:53:00
7:53 PM,55.0,-4.0,9,30.05,10.0,West,16.1,-,N/A,,Clear,270,2012-10-08 01:53:00
8:53 PM,48.9,-0.9,13,30.06,10.0,SSE,3.5,-,N/A,,Clear,160,2012-10-08 02:53:00
9:53 PM,48.0,-0.0,14,30.04,10.0,NW,3.5,-,N/A,,Clear,320,2012-10-08 03:53:00
10:53 PM,36.0,3.9,26,30.08,10.0,Calm,Calm,-,N/A,,Clear,0,2012-10-08 04:53:00
11:53 PM,30.9,5.0,33,30.09,10.0,ENE,4.6,-,N/A,,Clear,70,2012-10-08 05:53:00